sensor_id;sensor_type;location;lat;lon;timestamp;temperature;humidity
60309;DHT22;50313;52.894;6.492;2023-03-04T00:01:12;5.90;99.90
60309;DHT22;50313;52.894;6.492;2023-03-04T00:03:38;5.90;99.90
60309;DHT22;50313;52.894;6.492;2023-03-04T00:06:04;5.90;99.90
60309;DHT22;50313;52.894;6.492;2023-03-04T00:08:30;5.80;99.90
60309;DHT22;50313;52.894;6.492;2023-03-04T00:10:56;5.90;99.90
60309;DHT22;50313;52.894;6.492;2023-03-04T00:13:21;5.90;99.90
60309;DHT22;50313;52.894;6.492;2023-03-04T00:15:48;6.00;99.90
60309;DHT22;50313;52.894;6.492;2023-03-04T00:18:14;5.90;99.90
60309;DHT22;50313;52.894;6.492;2023-03-04T00:20:40;5.80;99.90
60309;DHT22;50313;52.894;6.492;2023-03-04T00:23:06;5.80;99.90
60309;DHT22;50313;52.894;6.492;2023-03-04T00:25:32;5.80;99.90
60309;DHT22;50313;52.894;6.492;2023-03-04T00:27:58;5.80;99.90
60309;DHT22;50313;52.894;6.492;2023-03-04T00:30:25;5.80;99.90
60309;DHT22;50313;52.894;6.492;2023-03-04T00:32:51;5.70;99.90
60309;DHT22;50313;52.894;6.492;2023-03-04T00:35:17;5.70;99.90
60309;DHT22;50313;52.894;6.492;2023-03-04T00:37:43;5.70;99.90
60309;DHT22;50313;52.894;6.492;2023-03-04T00:40:09;5.80;99.90
60309;DHT22;50313;52.894;6.492;2023-03-04T00:42:35;5.70;99.90
60309;DHT22;50313;52.894;6.492;2023-03-04T00:45:00;5.80;99.90
60309;DHT22;50313;52.894;6.492;2023-03-04T00:47:26;5.80;99.90
60309;DHT22;50313;52.894;6.492;2023-03-04T00:49:52;5.90;99.90
60309;DHT22;50313;52.894;6.492;2023-03-04T00:52:18;5.90;99.90
60309;DHT22;50313;52.894;6.492;2023-03-04T00:54:43;5.90;99.90
60309;DHT22;50313;52.894;6.492;2023-03-04T00:57:09;5.80;99.90
60309;DHT22;50313;52.894;6.492;2023-03-04T00:59:35;5.80;99.90
60309;DHT22;50313;52.894;6.492;2023-03-04T01:02:00;5.80;99.90
60309;DHT22;50313;52.894;6.492;2023-03-04T01:04:26;5.80;99.90
60309;DHT22;50313;52.894;6.492;2023-03-04T01:06:52;5.80;99.90
60309;DHT22;50313;52.894;6.492;2023-03-04T01:09:18;5.90;99.90
60309;DHT22;50313;52.894;6.492;2023-03-04T01:11:43;5.90;99.90
60309;DHT22;50313;52.894;6.492;2023-03-04T01:14:09;5.80;99.90
60309;DHT22;50313;52.894;6.492;2023-03-04T01:16:35;5.90;99.90
60309;DHT22;50313;52.894;6.492;2023-03-04T01:19:01;6.00;99.90
60309;DHT22;50313;52.894;6.492;2023-03-04T01:21:27;6.00;99.90
60309;DHT22;50313;52.894;6.492;2023-03-04T01:23:52;6.00;99.90
60309;DHT22;50313;52.894;6.492;2023-03-04T01:26:18;5.90;99.90
60309;DHT22;50313;52.894;6.492;2023-03-04T01:28:44;5.90;99.90
60309;DHT22;50313;52.894;6.492;2023-03-04T01:31:09;5.80;99.90
60309;DHT22;50313;52.894;6.492;2023-03-04T01:33:35;5.80;99.90
60309;DHT22;50313;52.894;6.492;2023-03-04T01:36:01;5.80;99.90
60309;DHT22;50313;52.894;6.492;2023-03-04T01:38:26;5.70;99.90
60309;DHT22;50313;52.894;6.492;2023-03-04T01:40:52;5.90;99.90
60309;DHT22;50313;52.894;6.492;2023-03-04T01:43:21;5.80;99.90
60309;DHT22;50313;52.894;6.492;2023-03-04T01:45:49;5.90;99.90
60309;DHT22;50313;52.894;6.492;2023-03-04T01:48:19;5.80;99.90
60309;DHT22;50313;52.894;6.492;2023-03-04T01:50:46;5.90;99.90
60309;DHT22;50313;52.894;6.492;2023-03-04T01:53:31;5.90;99.90
60309;DHT22;50313;52.894;6.492;2023-03-04T01:56:01;5.80;99.90
60309;DHT22;50313;52.894;6.492;2023-03-04T01:58:30;5.90;99.90
60309;DHT22;50313;52.894;6.492;2023-03-04T02:00:57;5.90;99.90
60309;DHT22;50313;52.894;6.492;2023-03-04T02:03:23;5.90;99.90
60309;DHT22;50313;52.894;6.492;2023-03-04T02:05:51;5.80;99.90
60309;DHT22;50313;52.894;6.492;2023-03-04T02:08:20;5.80;99.90
60309;DHT22;50313;52.894;6.492;2023-03-04T02:10:46;5.80;99.90
60309;DHT22;50313;52.894;6.492;2023-03-04T02:13:13;5.70;99.90
60309;DHT22;50313;52.894;6.492;2023-03-04T02:15:40;5.80;99.90
60309;DHT22;50313;52.894;6.492;2023-03-04T02:18:18;5.90;99.90
60309;DHT22;50313;52.894;6.492;2023-03-04T02:23:49;5.80;99.90
60309;DHT22;50313;52.894;6.492;2023-03-04T02:26:24;5.80;99.90
60309;DHT22;50313;52.894;6.492;2023-03-04T02:28:52;5.80;99.90
60309;DHT22;50313;52.894;6.492;2023-03-04T02:31:35;5.80;99.90
60309;DHT22;50313;52.894;6.492;2023-03-04T02:34:24;5.80;99.90
60309;DHT22;50313;52.894;6.492;2023-03-04T02:36:50;5.80;99.90
60309;DHT22;50313;52.894;6.492;2023-03-04T02:41:49;5.70;99.90
60309;DHT22;50313;52.894;6.492;2023-03-04T02:44:30;5.70;99.90
60309;DHT22;50313;52.894;6.492;2023-03-04T02:46:58;5.70;99.90
60309;DHT22;50313;52.894;6.492;2023-03-04T02:49:25;5.70;99.90
60309;DHT22;50313;52.894;6.492;2023-03-04T02:52:18;5.60;99.90
60309;DHT22;50313;52.894;6.492;2023-03-04T02:54:45;5.70;99.90
60309;DHT22;50313;52.894;6.492;2023-03-04T02:57:11;5.60;99.90
60309;DHT22;50313;52.894;6.492;2023-03-04T02:59:38;5.60;99.90
60309;DHT22;50313;52.894;6.492;2023-03-04T03:02:05;5.50;99.90
60309;DHT22;50313;52.894;6.492;2023-03-04T03:04:31;5.50;99.90
60309;DHT22;50313;52.894;6.492;2023-03-04T03:06:57;5.50;99.90
60309;DHT22;50313;52.894;6.492;2023-03-04T03:09:23;5.50;99.90
60309;DHT22;50313;52.894;6.492;2023-03-04T03:11:49;5.50;99.90
60309;DHT22;50313;52.894;6.492;2023-03-04T03:14:14;5.40;99.90
60309;DHT22;50313;52.894;6.492;2023-03-04T03:16:40;5.40;99.90
60309;DHT22;50313;52.894;6.492;2023-03-04T03:19:06;5.40;99.90
60309;DHT22;50313;52.894;6.492;2023-03-04T03:21:32;5.40;99.90
60309;DHT22;50313;52.894;6.492;2023-03-04T03:23:58;5.40;99.90
60309;DHT22;50313;52.894;6.492;2023-03-04T03:26:23;5.40;99.90
60309;DHT22;50313;52.894;6.492;2023-03-04T03:28:49;5.40;99.90
60309;DHT22;50313;52.894;6.492;2023-03-04T03:31:15;5.40;99.90
60309;DHT22;50313;52.894;6.492;2023-03-04T03:33:40;5.40;99.90
60309;DHT22;50313;52.894;6.492;2023-03-04T03:36:07;5.40;99.90
60309;DHT22;50313;52.894;6.492;2023-03-04T03:38:33;5.40;99.90
60309;DHT22;50313;52.894;6.492;2023-03-04T03:40:59;5.40;99.90
60309;DHT22;50313;52.894;6.492;2023-03-04T03:43:25;5.40;99.90
60309;DHT22;50313;52.894;6.492;2023-03-04T03:45:51;5.40;99.90
60309;DHT22;50313;52.894;6.492;2023-03-04T03:48:17;5.40;99.90
60309;DHT22;50313;52.894;6.492;2023-03-04T03:50:43;5.30;99.90
60309;DHT22;50313;52.894;6.492;2023-03-04T03:53:10;5.30;99.90
60309;DHT22;50313;52.894;6.492;2023-03-04T03:55:35;5.40;99.90
60309;DHT22;50313;52.894;6.492;2023-03-04T03:58:01;5.40;99.90
60309;DHT22;50313;52.894;6.492;2023-03-04T04:00:27;5.40;99.90
60309;DHT22;50313;52.894;6.492;2023-03-04T04:02:54;5.30;99.90
60309;DHT22;50313;52.894;6.492;2023-03-04T04:05:21;5.30;99.90
60309;DHT22;50313;52.894;6.492;2023-03-04T04:07:47;5.30;99.90
60309;DHT22;50313;52.894;6.492;2023-03-04T04:10:12;5.30;99.90
60309;DHT22;50313;52.894;6.492;2023-03-04T04:12:38;5.30;99.90
60309;DHT22;50313;52.894;6.492;2023-03-04T04:15:05;5.30;99.90
60309;DHT22;50313;52.894;6.492;2023-03-04T04:17:31;5.30;99.90
60309;DHT22;50313;52.894;6.492;2023-03-04T04:19:56;5.40;99.90
60309;DHT22;50313;52.894;6.492;2023-03-04T04:22:22;5.40;99.90
60309;DHT22;50313;52.894;6.492;2023-03-04T04:24:48;5.30;99.90
60309;DHT22;50313;52.894;6.492;2023-03-04T04:27:14;5.40;99.90
60309;DHT22;50313;52.894;6.492;2023-03-04T04:29:39;5.30;99.90
60309;DHT22;50313;52.894;6.492;2023-03-04T04:32:05;5.30;99.90
60309;DHT22;50313;52.894;6.492;2023-03-04T04:34:31;5.40;99.90
60309;DHT22;50313;52.894;6.492;2023-03-04T04:36:57;5.40;99.90
60309;DHT22;50313;52.894;6.492;2023-03-04T04:39:23;5.30;99.90
60309;DHT22;50313;52.894;6.492;2023-03-04T04:41:49;5.30;99.90
60309;DHT22;50313;52.894;6.492;2023-03-04T04:44:14;5.40;99.90
60309;DHT22;50313;52.894;6.492;2023-03-04T04:46:41;5.30;99.90
60309;DHT22;50313;52.894;6.492;2023-03-04T04:49:08;5.30;99.90
60309;DHT22;50313;52.894;6.492;2023-03-04T04:51:35;5.30;99.90
60309;DHT22;50313;52.894;6.492;2023-03-04T04:54:02;5.30;99.90
60309;DHT22;50313;52.894;6.492;2023-03-04T04:56:28;5.30;99.90
60309;DHT22;50313;52.894;6.492;2023-03-04T04:58:56;5.30;99.90
60309;DHT22;50313;52.894;6.492;2023-03-04T05:01:23;5.20;99.90
60309;DHT22;50313;52.894;6.492;2023-03-04T05:03:49;5.20;99.90
60309;DHT22;50313;52.894;6.492;2023-03-04T05:06:18;5.20;99.90
60309;DHT22;50313;52.894;6.492;2023-03-04T05:08:46;5.30;99.90
60309;DHT22;50313;52.894;6.492;2023-03-04T05:11:12;5.20;99.90
60309;DHT22;50313;52.894;6.492;2023-03-04T05:13:37;5.20;99.90
60309;DHT22;50313;52.894;6.492;2023-03-04T05:16:04;5.20;99.90
60309;DHT22;50313;52.894;6.492;2023-03-04T05:18:30;5.20;99.90
60309;DHT22;50313;52.894;6.492;2023-03-04T05:21:00;5.10;99.90
60309;DHT22;50313;52.894;6.492;2023-03-04T05:23:29;5.20;99.90
60309;DHT22;50313;52.894;6.492;2023-03-04T05:25:55;5.10;99.90
60309;DHT22;50313;52.894;6.492;2023-03-04T05:28:21;5.10;99.90
60309;DHT22;50313;52.894;6.492;2023-03-04T05:30:47;5.00;99.90
60309;DHT22;50313;52.894;6.492;2023-03-04T05:33:15;5.10;99.90
60309;DHT22;50313;52.894;6.492;2023-03-04T05:35:42;5.20;99.90
60309;DHT22;50313;52.894;6.492;2023-03-04T05:38:11;5.10;99.90
60309;DHT22;50313;52.894;6.492;2023-03-04T05:40:37;5.10;99.90
60309;DHT22;50313;52.894;6.492;2023-03-04T05:43:03;5.10;99.90
60309;DHT22;50313;52.894;6.492;2023-03-04T05:45:29;5.00;99.90
60309;DHT22;50313;52.894;6.492;2023-03-04T05:47:55;5.00;99.90
60309;DHT22;50313;52.894;6.492;2023-03-04T05:50:22;5.10;99.90
60309;DHT22;50313;52.894;6.492;2023-03-04T05:52:48;5.10;99.90
60309;DHT22;50313;52.894;6.492;2023-03-04T05:55:15;5.00;99.90
60309;DHT22;50313;52.894;6.492;2023-03-04T05:57:41;4.90;99.90
60309;DHT22;50313;52.894;6.492;2023-03-04T06:00:08;4.90;99.90
60309;DHT22;50313;52.894;6.492;2023-03-04T06:02:35;5.00;99.90
60309;DHT22;50313;52.894;6.492;2023-03-04T06:05:01;5.10;99.90
60309;DHT22;50313;52.894;6.492;2023-03-04T06:07:26;5.20;99.90
60309;DHT22;50313;52.894;6.492;2023-03-04T06:09:52;5.20;99.90
60309;DHT22;50313;52.894;6.492;2023-03-04T06:12:18;5.20;99.90
60309;DHT22;50313;52.894;6.492;2023-03-04T06:14:44;5.20;99.90
60309;DHT22;50313;52.894;6.492;2023-03-04T06:17:09;5.20;99.90
60309;DHT22;50313;52.894;6.492;2023-03-04T06:19:35;5.40;99.90
60309;DHT22;50313;52.894;6.492;2023-03-04T06:22:03;5.30;99.90
60309;DHT22;50313;52.894;6.492;2023-03-04T06:24:29;5.30;99.90
60309;DHT22;50313;52.894;6.492;2023-03-04T06:26:54;5.40;99.90
60309;DHT22;50313;52.894;6.492;2023-03-04T06:29:20;5.40;99.90
60309;DHT22;50313;52.894;6.492;2023-03-04T06:31:46;5.40;99.90
60309;DHT22;50313;52.894;6.492;2023-03-04T06:34:11;5.30;99.90
60309;DHT22;50313;52.894;6.492;2023-03-04T06:36:37;5.30;99.90
60309;DHT22;50313;52.894;6.492;2023-03-04T06:39:04;5.40;99.90
60309;DHT22;50313;52.894;6.492;2023-03-04T06:41:30;5.40;99.90
60309;DHT22;50313;52.894;6.492;2023-03-04T06:43:56;5.40;99.90
60309;DHT22;50313;52.894;6.492;2023-03-04T06:46:22;5.40;99.90
60309;DHT22;50313;52.894;6.492;2023-03-04T06:48:48;5.40;99.90
60309;DHT22;50313;52.894;6.492;2023-03-04T06:51:14;5.40;99.90
60309;DHT22;50313;52.894;6.492;2023-03-04T06:53:40;5.40;99.90
60309;DHT22;50313;52.894;6.492;2023-03-04T06:56:07;5.40;99.90
60309;DHT22;50313;52.894;6.492;2023-03-04T06:58:33;5.30;99.90
60309;DHT22;50313;52.894;6.492;2023-03-04T07:01:20;5.40;99.90
60309;DHT22;50313;52.894;6.492;2023-03-04T07:03:47;5.30;99.90
60309;DHT22;50313;52.894;6.492;2023-03-04T07:06:15;5.40;99.90
60309;DHT22;50313;52.894;6.492;2023-03-04T07:08:42;5.30;99.90
60309;DHT22;50313;52.894;6.492;2023-03-04T07:11:08;5.30;99.90
60309;DHT22;50313;52.894;6.492;2023-03-04T07:13:35;5.20;99.90
60309;DHT22;50313;52.894;6.492;2023-03-04T07:16:07;5.20;99.90
60309;DHT22;50313;52.894;6.492;2023-03-04T07:18:34;5.30;99.90
60309;DHT22;50313;52.894;6.492;2023-03-04T07:21:00;5.30;99.90
60309;DHT22;50313;52.894;6.492;2023-03-04T07:23:26;5.40;99.90
60309;DHT22;50313;52.894;6.492;2023-03-04T07:25:52;5.40;99.90
60309;DHT22;50313;52.894;6.492;2023-03-04T07:28:17;5.50;99.90
60309;DHT22;50313;52.894;6.492;2023-03-04T07:30:43;5.50;99.90
60309;DHT22;50313;52.894;6.492;2023-03-04T07:33:09;5.60;99.90
60309;DHT22;50313;52.894;6.492;2023-03-04T07:35:35;5.70;99.90
60309;DHT22;50313;52.894;6.492;2023-03-04T07:38:00;5.80;99.90
60309;DHT22;50313;52.894;6.492;2023-03-04T07:40:26;5.90;99.90
60309;DHT22;50313;52.894;6.492;2023-03-04T07:42:53;6.00;99.90
60309;DHT22;50313;52.894;6.492;2023-03-04T07:45:20;6.00;99.90
60309;DHT22;50313;52.894;6.492;2023-03-04T07:47:46;5.90;99.90
60309;DHT22;50313;52.894;6.492;2023-03-04T07:50:12;5.90;99.90
60309;DHT22;50313;52.894;6.492;2023-03-04T07:52:56;5.90;99.90
60309;DHT22;50313;52.894;6.492;2023-03-04T07:55:22;5.90;99.90
60309;DHT22;50313;52.894;6.492;2023-03-04T07:57:48;5.90;99.90
60309;DHT22;50313;52.894;6.492;2023-03-04T08:00:15;5.80;99.90
60309;DHT22;50313;52.894;6.492;2023-03-04T08:02:42;5.90;99.90
60309;DHT22;50313;52.894;6.492;2023-03-04T08:05:08;5.90;99.90
60309;DHT22;50313;52.894;6.492;2023-03-04T08:07:34;5.80;99.90
60309;DHT22;50313;52.894;6.492;2023-03-04T08:10:00;5.90;99.90
60309;DHT22;50313;52.894;6.492;2023-03-04T08:12:25;5.80;99.90
60309;DHT22;50313;52.894;6.492;2023-03-04T08:14:52;5.80;99.90
60309;DHT22;50313;52.894;6.492;2023-03-04T08:17:18;5.90;99.90
60309;DHT22;50313;52.894;6.492;2023-03-04T08:19:44;5.90;99.90
60309;DHT22;50313;52.894;6.492;2023-03-04T08:22:10;6.00;99.90
60309;DHT22;50313;52.894;6.492;2023-03-04T08:24:35;6.10;99.90
60309;DHT22;50313;52.894;6.492;2023-03-04T08:27:01;6.10;99.90
60309;DHT22;50313;52.894;6.492;2023-03-04T08:29:27;6.20;99.90
60309;DHT22;50313;52.894;6.492;2023-03-04T08:31:53;6.20;99.90
60309;DHT22;50313;52.894;6.492;2023-03-04T08:34:21;6.30;99.90
60309;DHT22;50313;52.894;6.492;2023-03-04T08:36:47;6.30;99.90
60309;DHT22;50313;52.894;6.492;2023-03-04T08:39:15;6.30;99.90
60309;DHT22;50313;52.894;6.492;2023-03-04T08:41:41;6.30;99.90
60309;DHT22;50313;52.894;6.492;2023-03-04T08:44:07;6.40;99.90
60309;DHT22;50313;52.894;6.492;2023-03-04T08:46:36;6.40;99.90
60309;DHT22;50313;52.894;6.492;2023-03-04T08:49:03;6.50;99.90
60309;DHT22;50313;52.894;6.492;2023-03-04T08:51:28;6.50;99.90
60309;DHT22;50313;52.894;6.492;2023-03-04T08:53:54;6.50;99.90
60309;DHT22;50313;52.894;6.492;2023-03-04T08:56:20;6.60;99.90
60309;DHT22;50313;52.894;6.492;2023-03-04T08:58:46;6.60;99.90
60309;DHT22;50313;52.894;6.492;2023-03-04T09:01:13;6.70;99.90
60309;DHT22;50313;52.894;6.492;2023-03-04T09:03:39;6.70;99.90
60309;DHT22;50313;52.894;6.492;2023-03-04T09:06:07;6.70;99.90
60309;DHT22;50313;52.894;6.492;2023-03-04T09:08:33;6.70;99.90
60309;DHT22;50313;52.894;6.492;2023-03-04T09:10:59;6.70;99.90
60309;DHT22;50313;52.894;6.492;2023-03-04T09:13:28;6.60;99.90
60309;DHT22;50313;52.894;6.492;2023-03-04T09:15:53;6.60;99.90
60309;DHT22;50313;52.894;6.492;2023-03-04T09:18:21;6.50;99.90
60309;DHT22;50313;52.894;6.492;2023-03-04T09:20:47;6.50;99.90
60309;DHT22;50313;52.894;6.492;2023-03-04T09:23:14;6.50;99.90
60309;DHT22;50313;52.894;6.492;2023-03-04T09:25:41;6.60;99.90
60309;DHT22;50313;52.894;6.492;2023-03-04T09:28:07;6.70;99.90
60309;DHT22;50313;52.894;6.492;2023-03-04T09:30:35;6.70;99.90
60309;DHT22;50313;52.894;6.492;2023-03-04T09:33:01;6.70;99.90
60309;DHT22;50313;52.894;6.492;2023-03-04T09:35:26;6.70;99.90
60309;DHT22;50313;52.894;6.492;2023-03-04T09:37:55;6.70;99.90
60309;DHT22;50313;52.894;6.492;2023-03-04T09:40:23;6.70;99.90
60309;DHT22;50313;52.894;6.492;2023-03-04T09:42:54;6.80;99.90
60309;DHT22;50313;52.894;6.492;2023-03-04T09:45:24;6.70;99.90
60309;DHT22;50313;52.894;6.492;2023-03-04T09:47:52;6.80;99.90
60309;DHT22;50313;52.894;6.492;2023-03-04T09:50:20;6.80;99.90
60309;DHT22;50313;52.894;6.492;2023-03-04T09:55:24;6.60;99.90
60309;DHT22;50313;52.894;6.492;2023-03-04T10:00:46;6.60;99.90
60309;DHT22;50313;52.894;6.492;2023-03-04T10:03:22;6.60;99.90
60309;DHT22;50313;52.894;6.492;2023-03-04T10:06:05;6.60;99.90
60309;DHT22;50313;52.894;6.492;2023-03-04T10:16:44;6.80;99.90
60309;DHT22;50313;52.894;6.492;2023-03-04T10:21:45;6.80;99.90
60309;DHT22;50313;52.894;6.492;2023-03-04T10:24:13;6.80;99.90
60309;DHT22;50313;52.894;6.492;2023-03-04T10:26:41;6.90;99.90
60309;DHT22;50313;52.894;6.492;2023-03-04T10:29:16;6.90;99.90
60309;DHT22;50313;52.894;6.492;2023-03-04T10:31:43;6.90;99.90
60309;DHT22;50313;52.894;6.492;2023-03-04T10:34:11;6.90;99.90
60309;DHT22;50313;52.894;6.492;2023-03-04T10:36:59;6.90;99.90
60309;DHT22;50313;52.894;6.492;2023-03-04T10:39:28;6.90;99.90
60309;DHT22;50313;52.894;6.492;2023-03-04T10:41:57;6.90;99.90
60309;DHT22;50313;52.894;6.492;2023-03-04T10:44:24;6.80;99.90
60309;DHT22;50313;52.894;6.492;2023-03-04T10:46:53;6.70;99.90
60309;DHT22;50313;52.894;6.492;2023-03-04T10:49:19;6.60;99.90
60309;DHT22;50313;52.894;6.492;2023-03-04T10:52:03;6.50;99.90
60309;DHT22;50313;52.894;6.492;2023-03-04T10:54:41;6.50;99.90
60309;DHT22;50313;52.894;6.492;2023-03-04T10:59:47;6.60;99.90
60309;DHT22;50313;52.894;6.492;2023-03-04T11:04:52;6.80;99.90
60309;DHT22;50313;52.894;6.492;2023-03-04T11:07:19;6.90;99.90
60309;DHT22;50313;52.894;6.492;2023-03-04T11:09:45;7.00;99.90
60309;DHT22;50313;52.894;6.492;2023-03-04T11:12:14;7.20;99.90
60309;DHT22;50313;52.894;6.492;2023-03-04T11:14:48;7.20;99.90
60309;DHT22;50313;52.894;6.492;2023-03-04T11:17:23;7.20;99.90
60309;DHT22;50313;52.894;6.492;2023-03-04T11:20:04;7.10;99.90
60309;DHT22;50313;52.894;6.492;2023-03-04T11:22:33;7.10;99.90
60309;DHT22;50313;52.894;6.492;2023-03-04T11:25:05;7.10;99.90
60309;DHT22;50313;52.894;6.492;2023-03-04T11:27:35;6.90;99.90
60309;DHT22;50313;52.894;6.492;2023-03-04T11:30:37;7.00;99.90
60309;DHT22;50313;52.894;6.492;2023-03-04T11:33:11;7.10;99.90
60309;DHT22;50313;52.894;6.492;2023-03-04T11:35:54;7.30;99.90
60309;DHT22;50313;52.894;6.492;2023-03-04T11:38:48;7.50;99.90
60309;DHT22;50313;52.894;6.492;2023-03-04T11:41:33;7.50;99.90
60309;DHT22;50313;52.894;6.492;2023-03-04T11:44:00;7.40;99.90
60309;DHT22;50313;52.894;6.492;2023-03-04T11:49:28;7.20;99.90
60309;DHT22;50313;52.894;6.492;2023-03-04T11:52:16;7.20;99.90
60309;DHT22;50313;52.894;6.492;2023-03-04T11:55:24;7.20;99.90
60309;DHT22;50313;52.894;6.492;2023-03-04T12:12:40;7.30;99.90
60309;DHT22;50313;52.894;6.492;2023-03-04T12:17:58;7.40;99.90
60309;DHT22;50313;52.894;6.492;2023-03-04T12:20:40;7.50;99.90
60309;DHT22;50313;52.894;6.492;2023-03-04T12:26:16;7.70;99.90
60309;DHT22;50313;52.894;6.492;2023-03-04T12:28:53;7.60;99.90
60309;DHT22;50313;52.894;6.492;2023-03-04T12:48:13;7.30;99.90
60309;DHT22;50313;52.894;6.492;2023-03-04T12:50:41;7.30;99.90
60309;DHT22;50313;52.894;6.492;2023-03-04T12:53:29;7.20;99.90
60309;DHT22;50313;52.894;6.492;2023-03-04T12:55:58;7.10;99.90
60309;DHT22;50313;52.894;6.492;2023-03-04T12:58:28;7.20;99.90
60309;DHT22;50313;52.894;6.492;2023-03-04T13:01:10;7.10;99.90
60309;DHT22;50313;52.894;6.492;2023-03-04T13:03:54;7.20;99.90
60309;DHT22;50313;52.894;6.492;2023-03-04T13:06:48;7.30;99.90
60309;DHT22;50313;52.894;6.492;2023-03-04T13:09:33;7.30;99.90
60309;DHT22;50313;52.894;6.492;2023-03-04T13:12:19;7.50;99.90
60309;DHT22;50313;52.894;6.492;2023-03-04T13:17:40;7.20;99.90
60309;DHT22;50313;52.894;6.492;2023-03-04T13:20:34;6.80;99.90
60309;DHT22;50313;52.894;6.492;2023-03-04T13:25:45;6.90;99.90
60309;DHT22;50313;52.894;6.492;2023-03-04T13:28:37;6.90;99.90
60309;DHT22;50313;52.894;6.492;2023-03-04T13:31:33;6.90;99.90
60309;DHT22;50313;52.894;6.492;2023-03-04T13:37:33;6.90;99.90
60309;DHT22;50313;52.894;6.492;2023-03-04T13:42:48;7.00;99.90
60309;DHT22;50313;52.894;6.492;2023-03-04T13:45:31;7.10;99.90
60309;DHT22;50313;52.894;6.492;2023-03-04T13:47:58;7.30;99.90
60309;DHT22;50313;52.894;6.492;2023-03-04T13:53:09;7.40;99.90
60309;DHT22;50313;52.894;6.492;2023-03-04T13:55:58;7.40;99.90
60309;DHT22;50313;52.894;6.492;2023-03-04T13:58:26;7.30;99.90
60309;DHT22;50313;52.894;6.492;2023-03-04T14:00:54;7.20;99.90
60309;DHT22;50313;52.894;6.492;2023-03-04T14:03:29;7.80;99.90
60309;DHT22;50313;52.894;6.492;2023-03-04T14:08:40;7.80;99.90
60309;DHT22;50313;52.894;6.492;2023-03-04T14:11:14;7.60;99.90
60309;DHT22;50313;52.894;6.492;2023-03-04T14:13:41;7.50;99.90
60309;DHT22;50313;52.894;6.492;2023-03-04T14:16:08;7.40;99.90
60309;DHT22;50313;52.894;6.492;2023-03-04T14:18:34;7.10;99.90
60309;DHT22;50313;52.894;6.492;2023-03-04T14:21:01;7.10;99.90
60309;DHT22;50313;52.894;6.492;2023-03-04T14:23:33;7.10;99.90
60309;DHT22;50313;52.894;6.492;2023-03-04T14:26:13;7.20;99.90
60309;DHT22;50313;52.894;6.492;2023-03-04T14:28:48;7.30;99.90
60309;DHT22;50313;52.894;6.492;2023-03-04T14:31:22;7.30;99.90
60309;DHT22;50313;52.894;6.492;2023-03-04T14:34:05;7.10;99.90
60309;DHT22;50313;52.894;6.492;2023-03-04T14:36:37;7.10;99.90
60309;DHT22;50313;52.894;6.492;2023-03-04T14:39:05;7.00;99.90
60309;DHT22;50313;52.894;6.492;2023-03-04T14:41:32;7.00;99.90
60309;DHT22;50313;52.894;6.492;2023-03-04T14:47:00;7.20;99.90
60309;DHT22;50313;52.894;6.492;2023-03-04T14:49:30;7.30;99.90
60309;DHT22;50313;52.894;6.492;2023-03-04T14:51:57;7.30;99.90
60309;DHT22;50313;52.894;6.492;2023-03-04T14:54:37;7.00;99.90
60309;DHT22;50313;52.894;6.492;2023-03-04T14:57:25;6.80;99.90
60309;DHT22;50313;52.894;6.492;2023-03-04T14:59:54;6.80;99.90
60309;DHT22;50313;52.894;6.492;2023-03-04T15:02:37;6.70;99.90
60309;DHT22;50313;52.894;6.492;2023-03-04T15:05:30;6.60;99.90
60309;DHT22;50313;52.894;6.492;2023-03-04T15:08:04;6.60;99.90
60309;DHT22;50313;52.894;6.492;2023-03-04T15:10:36;6.50;99.90
60309;DHT22;50313;52.894;6.492;2023-03-04T15:13:07;6.40;99.90
60309;DHT22;50313;52.894;6.492;2023-03-04T15:15:42;6.50;99.90
60309;DHT22;50313;52.894;6.492;2023-03-04T15:20:50;6.60;99.90
60309;DHT22;50313;52.894;6.492;2023-03-04T15:23:16;7.00;99.90
60309;DHT22;50313;52.894;6.492;2023-03-04T15:25:42;7.00;99.90
60309;DHT22;50313;52.894;6.492;2023-03-04T15:28:16;7.00;99.90
60309;DHT22;50313;52.894;6.492;2023-03-04T15:30:47;6.90;99.90
60309;DHT22;50313;52.894;6.492;2023-03-04T15:33:16;6.80;99.90
60309;DHT22;50313;52.894;6.492;2023-03-04T15:35:52;6.80;99.90
60309;DHT22;50313;52.894;6.492;2023-03-04T15:38:27;6.70;99.90
60309;DHT22;50313;52.894;6.492;2023-03-04T15:40:57;6.60;99.90
60309;DHT22;50313;52.894;6.492;2023-03-04T15:43:24;6.60;99.90
60309;DHT22;50313;52.894;6.492;2023-03-04T15:45:51;6.60;99.90
60309;DHT22;50313;52.894;6.492;2023-03-04T15:48:18;6.60;99.90
60309;DHT22;50313;52.894;6.492;2023-03-04T15:50:50;6.50;99.90
60309;DHT22;50313;52.894;6.492;2023-03-04T15:53:36;6.40;99.90
60309;DHT22;50313;52.894;6.492;2023-03-04T15:56:17;6.40;99.90
60309;DHT22;50313;52.894;6.492;2023-03-04T15:58:47;6.40;99.90
60309;DHT22;50313;52.894;6.492;2023-03-04T16:01:17;6.40;99.90
60309;DHT22;50313;52.894;6.492;2023-03-04T16:03:43;6.40;99.90
60309;DHT22;50313;52.894;6.492;2023-03-04T16:06:13;6.40;99.90
60309;DHT22;50313;52.894;6.492;2023-03-04T16:08:40;6.40;99.90
60309;DHT22;50313;52.894;6.492;2023-03-04T16:11:12;6.30;99.90
60309;DHT22;50313;52.894;6.492;2023-03-04T16:13:42;6.30;99.90
60309;DHT22;50313;52.894;6.492;2023-03-04T16:16:18;6.20;99.90
60309;DHT22;50313;52.894;6.492;2023-03-04T16:18:44;6.10;99.90
60309;DHT22;50313;52.894;6.492;2023-03-04T16:21:17;6.10;99.90
60309;DHT22;50313;52.894;6.492;2023-03-04T16:23:46;6.00;99.90
60309;DHT22;50313;52.894;6.492;2023-03-04T16:26:20;5.90;99.90
60309;DHT22;50313;52.894;6.492;2023-03-04T16:28:47;5.80;99.90
60309;DHT22;50313;52.894;6.492;2023-03-04T16:31:14;5.80;99.90
60309;DHT22;50313;52.894;6.492;2023-03-04T16:33:40;5.80;99.90
60309;DHT22;50313;52.894;6.492;2023-03-04T16:38:38;5.80;99.90
60309;DHT22;50313;52.894;6.492;2023-03-04T16:41:11;5.70;99.90
60309;DHT22;50313;52.894;6.492;2023-03-04T16:43:38;5.70;99.90
60309;DHT22;50313;52.894;6.492;2023-03-04T16:46:04;5.50;99.90
60309;DHT22;50313;52.894;6.492;2023-03-04T16:48:30;5.40;99.90
60309;DHT22;50313;52.894;6.492;2023-03-04T16:51:02;5.20;99.90
60309;DHT22;50313;52.894;6.492;2023-03-04T16:53:36;5.30;99.90
60309;DHT22;50313;52.894;6.492;2023-03-04T16:56:14;5.20;99.90
60309;DHT22;50313;52.894;6.492;2023-03-04T16:58:41;5.20;99.90
60309;DHT22;50313;52.894;6.492;2023-03-04T17:01:19;5.20;99.90
60309;DHT22;50313;52.894;6.492;2023-03-04T17:03:46;5.20;99.90
60309;DHT22;50313;52.894;6.492;2023-03-04T17:06:16;5.00;99.90
60309;DHT22;50313;52.894;6.492;2023-03-04T17:08:42;5.00;99.90
60309;DHT22;50313;52.894;6.492;2023-03-04T17:11:11;5.10;99.90
60309;DHT22;50313;52.894;6.492;2023-03-04T17:13:38;5.20;99.90
60309;DHT22;50313;52.894;6.492;2023-03-04T17:16:04;5.00;99.90
60309;DHT22;50313;52.894;6.492;2023-03-04T17:18:30;4.90;99.90
60309;DHT22;50313;52.894;6.492;2023-03-04T17:21:06;4.80;99.90
60309;DHT22;50313;52.894;6.492;2023-03-04T17:23:32;4.80;99.90
60309;DHT22;50313;52.894;6.492;2023-03-04T17:26:00;4.70;99.90
60309;DHT22;50313;52.894;6.492;2023-03-04T17:28:26;4.60;99.90
60309;DHT22;50313;52.894;6.492;2023-03-04T17:30:52;4.60;99.90